sensor_id;sensor_type;location;lat;lon;timestamp;pressure;altitude;pressure_sealevel;temperature
37414;BMP280;23279;46.472;30.760;2023-05-07T00:00:46;79289.72;;;-146.33
37414;BMP280;23279;46.472;30.760;2023-05-07T00:03:12;79297.88;;;-146.33
37414;BMP280;23279;46.472;30.760;2023-05-07T00:05:39;79306.03;;;-146.33
37414;BMP280;23279;46.472;30.760;2023-05-07T00:08:04;79297.88;;;-146.33
37414;BMP280;23279;46.472;30.760;2023-05-07T00:10:30;79299.91;;;-146.33
37414;BMP280;23279;46.472;30.760;2023-05-07T00:12:55;79330.44;;;-146.33
37414;BMP280;23279;46.472;30.760;2023-05-07T00:15:21;79330.44;;;-146.33
37414;BMP280;23279;46.472;30.760;2023-05-07T00:17:46;79326.38;;;-146.33
37414;BMP280;23279;46.472;30.760;2023-05-07T00:20:12;79326.38;;;-146.33
37414;BMP280;23279;46.472;30.760;2023-05-07T00:22:37;79322.31;;;-146.33
37414;BMP280;23279;46.472;30.760;2023-05-07T00:25:03;79338.59;;;-146.33
37414;BMP280;23279;46.472;30.760;2023-05-07T00:27:28;79330.44;;;-146.33
37414;BMP280;23279;46.472;30.760;2023-05-07T00:29:54;79312.13;;;-146.33
37414;BMP280;23279;46.472;30.760;2023-05-07T00:32:19;79326.38;;;-146.33
37414;BMP280;23279;46.472;30.760;2023-05-07T00:34:45;79322.31;;;-146.33
37414;BMP280;23279;46.472;30.760;2023-05-07T00:37:10;79334.53;;;-146.33
37414;BMP280;23279;46.472;30.760;2023-05-07T00:39:37;79334.53;;;-146.33
37414;BMP280;23279;46.472;30.760;2023-05-07T00:42:02;79338.59;;;-146.33
37414;BMP280;23279;46.472;30.760;2023-05-07T00:44:29;79326.38;;;-146.33
37414;BMP280;23279;46.472;30.760;2023-05-07T00:46:56;79330.44;;;-146.33
37414;BMP280;23279;46.472;30.760;2023-05-07T00:49:22;79340.63;;;-146.33
37414;BMP280;23279;46.472;30.760;2023-05-07T00:51:48;79334.53;;;-146.33
37414;BMP280;23279;46.472;30.760;2023-05-07T00:54:15;79356.91;;;-146.33
37414;BMP280;23279;46.472;30.760;2023-05-07T00:56:40;79350.81;;;-146.33
37414;BMP280;23279;46.472;30.760;2023-05-07T00:59:06;79342.66;;;-146.33
37414;BMP280;23279;46.472;30.760;2023-05-07T01:01:31;79354.88;;;-146.33
37414;BMP280;23279;46.472;30.760;2023-05-07T01:03:57;79354.88;;;-146.33
37414;BMP280;23279;46.472;30.760;2023-05-07T01:06:24;79346.75;;;-146.33
37414;BMP280;23279;46.472;30.760;2023-05-07T01:08:51;79346.75;;;-146.33
37414;BMP280;23279;46.472;30.760;2023-05-07T01:11:18;79371.16;;;-146.33
37414;BMP280;23279;46.472;30.760;2023-05-07T01:13:46;79363.03;;;-146.33
37414;BMP280;23279;46.472;30.760;2023-05-07T01:16:11;79369.13;;;-146.33
37414;BMP280;23279;46.472;30.760;2023-05-07T01:18:37;79373.22;;;-146.33
37414;BMP280;23279;46.472;30.760;2023-05-07T01:21:04;79377.28;;;-146.33
37414;BMP280;23279;46.472;30.760;2023-05-07T01:23:30;79379.31;;;-146.33
37414;BMP280;23279;46.472;30.760;2023-05-07T01:25:56;79379.31;;;-146.33
37414;BMP280;23279;46.472;30.760;2023-05-07T01:28:21;79358.94;;;-146.33
37414;BMP280;23279;46.472;30.760;2023-05-07T01:30:51;79348.78;;;-146.33
37414;BMP280;23279;46.472;30.760;2023-05-07T01:33:20;79354.88;;;-146.33
37414;BMP280;23279;46.472;30.760;2023-05-07T01:35:48;79346.75;;;-146.33
37414;BMP280;23279;46.472;30.760;2023-05-07T01:38:16;79354.88;;;-146.33
37414;BMP280;23279;46.472;30.760;2023-05-07T01:40:42;79352.84;;;-146.33
37414;BMP280;23279;46.472;30.760;2023-05-07T01:43:09;79342.66;;;-146.33
37414;BMP280;23279;46.472;30.760;2023-05-07T01:45:34;79330.44;;;-146.33
37414;BMP280;23279;46.472;30.760;2023-05-07T01:48:01;79322.31;;;-146.33
37414;BMP280;23279;46.472;30.760;2023-05-07T01:50:27;79322.31;;;-146.33
37414;BMP280;23279;46.472;30.760;2023-05-07T01:52:53;79322.31;;;-146.33
37414;BMP280;23279;46.472;30.760;2023-05-07T01:55:19;79328.41;;;-146.33
37414;BMP280;23279;46.472;30.760;2023-05-07T01:57:44;79318.25;;;-146.33
37414;BMP280;23279;46.472;30.760;2023-05-07T02:00:11;79314.16;;;-146.33
37414;BMP280;23279;46.472;30.760;2023-05-07T02:02:36;79318.25;;;-146.33
37414;BMP280;23279;46.472;30.760;2023-05-07T02:05:03;79299.91;;;-146.33
37414;BMP280;23279;46.472;30.760;2023-05-07T02:07:29;79326.38;;;-146.33
37414;BMP280;23279;46.472;30.760;2023-05-07T02:09:54;79320.28;;;-146.33
37414;BMP280;23279;46.472;30.760;2023-05-07T02:12:21;79326.38;;;-146.33
37414;BMP280;23279;46.472;30.760;2023-05-07T02:14:46;79328.41;;;-146.33
37414;BMP280;23279;46.472;30.760;2023-05-07T02:17:12;79316.19;;;-146.33
37414;BMP280;23279;46.472;30.760;2023-05-07T02:19:37;79322.31;;;-146.33
37414;BMP280;23279;46.472;30.760;2023-05-07T02:22:02;79310.09;;;-146.33
37414;BMP280;23279;46.472;30.760;2023-05-07T02:24:28;79310.09;;;-146.33
37414;BMP280;23279;46.472;30.760;2023-05-07T02:26:53;79318.25;;;-146.33
37414;BMP280;23279;46.472;30.760;2023-05-07T02:29:18;79314.16;;;-146.33
37414;BMP280;23279;46.472;30.760;2023-05-07T02:31:44;79318.25;;;-146.33
37414;BMP280;23279;46.472;30.760;2023-05-07T02:34:09;79306.03;;;-146.33
37414;BMP280;23279;46.472;30.760;2023-05-07T02:36:35;79310.09;;;-146.33
37414;BMP280;23279;46.472;30.760;2023-05-07T02:39:01;79318.25;;;-146.33
37414;BMP280;23279;46.472;30.760;2023-05-07T02:41:27;79316.19;;;-146.33
37414;BMP280;23279;46.472;30.760;2023-05-07T02:43:53;79318.25;;;-146.33
37414;BMP280;23279;46.472;30.760;2023-05-07T02:46:18;79322.31;;;-146.33
37414;BMP280;23279;46.472;30.760;2023-05-07T02:48:44;79318.25;;;-146.33
37414;BMP280;23279;46.472;30.760;2023-05-07T02:51:09;79306.03;;;-146.33
37414;BMP280;23279;46.472;30.760;2023-05-07T02:53:35;79316.19;;;-146.33
37414;BMP280;23279;46.472;30.760;2023-05-07T02:56:01;79334.53;;;-146.33
37414;BMP280;23279;46.472;30.760;2023-05-07T02:58:27;79318.25;;;-146.33
37414;BMP280;23279;46.472;30.760;2023-05-07T03:00:53;79338.59;;;-146.33
37414;BMP280;23279;46.472;30.760;2023-05-07T03:03:20;79336.56;;;-146.33
37414;BMP280;23279;46.472;30.760;2023-05-07T03:05:45;79342.66;;;-146.33
37414;BMP280;23279;46.472;30.760;2023-05-07T03:08:11;79346.75;;;-146.33
37414;BMP280;23279;46.472;30.760;2023-05-07T03:10:37;79350.81;;;-146.33
37414;BMP280;23279;46.472;30.760;2023-05-07T03:13:03;79358.94;;;-146.33
37414;BMP280;23279;46.472;30.760;2023-05-07T03:15:28;79352.84;;;-146.33
37414;BMP280;23279;46.472;30.760;2023-05-07T03:17:54;79350.81;;;-146.33
37414;BMP280;23279;46.472;30.760;2023-05-07T03:20:19;79330.44;;;-146.33
37414;BMP280;23279;46.472;30.760;2023-05-07T03:22:45;79342.66;;;-146.33
37414;BMP280;23279;46.472;30.760;2023-05-07T03:25:10;79354.88;;;-146.33
37414;BMP280;23279;46.472;30.760;2023-05-07T03:27:36;79338.59;;;-146.33
37414;BMP280;23279;46.472;30.760;2023-05-07T03:30:02;79330.44;;;-146.33
37414;BMP280;23279;46.472;30.760;2023-05-07T03:32:27;79346.75;;;-146.33
37414;BMP280;23279;46.472;30.760;2023-05-07T03:34:53;79330.44;;;-146.33
37414;BMP280;23279;46.472;30.760;2023-05-07T03:37:18;79322.31;;;-146.33
37414;BMP280;23279;46.472;30.760;2023-05-07T03:39:44;79316.19;;;-146.33
37414;BMP280;23279;46.472;30.760;2023-05-07T03:42:10;79326.38;;;-146.33
37414;BMP280;23279;46.472;30.760;2023-05-07T03:44:35;79320.28;;;-146.33
37414;BMP280;23279;46.472;30.760;2023-05-07T03:47:02;79303.97;;;-146.33
37414;BMP280;23279;46.472;30.760;2023-05-07T03:49:27;79330.44;;;-146.33
37414;BMP280;23279;46.472;30.760;2023-05-07T03:51:53;79312.13;;;-146.33
37414;BMP280;23279;46.472;30.760;2023-05-07T03:54:18;79306.03;;;-146.33
37414;BMP280;23279;46.472;30.760;2023-05-07T03:56:44;79283.63;;;-146.33
37414;BMP280;23279;46.472;30.760;2023-05-07T03:59:09;79299.91;;;-146.33
37414;BMP280;23279;46.472;30.760;2023-05-07T04:01:34;79291.78;;;-146.33
37414;BMP280;23279;46.472;30.760;2023-05-07T04:04:00;79297.88;;;-146.33
37414;BMP280;23279;46.472;30.760;2023-05-07T04:06:25;79297.88;;;-146.33
37414;BMP280;23279;46.472;30.760;2023-05-07T04:08:50;79285.66;;;-146.33
37414;BMP280;23279;46.472;30.760;2023-05-07T04:11:16;79303.97;;;-146.33
37414;BMP280;23279;46.472;30.760;2023-05-07T04:13:41;79293.81;;;-146.33
37414;BMP280;23279;46.472;30.760;2023-05-07T04:16:07;79293.81;;;-146.33
37414;BMP280;23279;46.472;30.760;2023-05-07T04:18:33;79301.94;;;-146.33
37414;BMP280;23279;46.472;30.760;2023-05-07T04:20:58;79283.63;;;-146.33
37414;BMP280;23279;46.472;30.760;2023-05-07T04:23:23;79289.72;;;-146.33
37414;BMP280;23279;46.472;30.760;2023-05-07T04:25:50;79285.66;;;-146.33
37414;BMP280;23279;46.472;30.760;2023-05-07T04:28:15;79275.47;;;-146.33
37414;BMP280;23279;46.472;30.760;2023-05-07T04:30:41;79232.72;;;-146.33
37414;BMP280;23279;46.472;30.760;2023-05-07T04:33:06;79224.59;;;-146.33
37414;BMP280;23279;46.472;30.760;2023-05-07T04:35:32;79244.94;;;-146.33
37414;BMP280;23279;46.472;30.760;2023-05-07T04:37:57;79238.84;;;-146.33
37414;BMP280;23279;46.472;30.760;2023-05-07T04:40:23;79249.03;;;-146.33
37414;BMP280;23279;46.472;30.760;2023-05-07T04:42:48;79246.97;;;-146.33
37414;BMP280;23279;46.472;30.760;2023-05-07T04:45:14;79240.88;;;-146.33
37414;BMP280;23279;46.472;30.760;2023-05-07T04:47:39;79249.03;;;-146.33
37414;BMP280;23279;46.472;30.760;2023-05-07T04:50:06;79232.72;;;-146.33
37414;BMP280;23279;46.472;30.760;2023-05-07T04:52:32;79234.78;;;-146.33
37414;BMP280;23279;46.472;30.760;2023-05-07T04:55:01;79206.25;;;-146.33
37414;BMP280;23279;46.472;30.760;2023-05-07T04:57:27;79208.31;;;-146.33
37414;BMP280;23279;46.472;30.760;2023-05-07T04:59:53;79210.34;;;-146.33
37414;BMP280;23279;46.472;30.760;2023-05-07T05:02:18;79196.09;;;-146.33
37414;BMP280;23279;46.472;30.760;2023-05-07T05:04:44;79196.09;;;-146.33
37414;BMP280;23279;46.472;30.760;2023-05-07T05:07:10;79206.25;;;-146.33
37414;BMP280;23279;46.472;30.760;2023-05-07T05:09:35;79200.16;;;-146.33
37414;BMP280;23279;46.472;30.760;2023-05-07T05:12:01;79179.81;;;-146.33
37414;BMP280;23279;46.472;30.760;2023-05-07T05:14:26;79179.81;;;-146.33
37414;BMP280;23279;46.472;30.760;2023-05-07T05:16:51;79175.72;;;-146.33
37414;BMP280;23279;46.472;30.760;2023-05-07T05:19:17;79147.22;;;-146.33
37414;BMP280;23279;46.472;30.760;2023-05-07T05:21:42;79177.75;;;-146.33
37414;BMP280;23279;46.472;30.760;2023-05-07T05:24:08;79149.25;;;-146.33
37414;BMP280;23279;46.472;30.760;2023-05-07T05:26:34;79100.41;;;-146.33
37414;BMP280;23279;46.472;30.760;2023-05-07T05:28:59;79082.09;;;-146.33
37414;BMP280;23279;46.472;30.760;2023-05-07T05:31:25;79027.13;;;-146.33
37414;BMP280;23279;46.472;30.760;2023-05-07T05:33:50;79051.56;;;-146.33
37414;BMP280;23279;46.472;30.760;2023-05-07T05:36:16;78976.25;;;-146.33
37414;BMP280;23279;46.472;30.760;2023-05-07T05:38:41;78935.53;;;-146.33
37414;BMP280;23279;46.472;30.760;2023-05-07T05:41:07;78966.06;;;-146.33
37414;BMP280;23279;46.472;30.760;2023-05-07T05:43:32;78911.09;;;-146.33
37414;BMP280;23279;46.472;30.760;2023-05-07T05:45:58;78943.66;;;-146.33
37414;BMP280;23279;46.472;30.760;2023-05-07T05:48:24;78913.13;;;-146.33
37414;BMP280;23279;46.472;30.760;2023-05-07T05:50:49;78902.97;;;-146.33
37414;BMP280;23279;46.472;30.760;2023-05-07T05:53:14;78915.16;;;-146.33
37414;BMP280;23279;46.472;30.760;2023-05-07T05:55:41;78925.34;;;-146.33
37414;BMP280;23279;46.472;30.760;2023-05-07T05:58:07;78943.66;;;-146.33
37414;BMP280;23279;46.472;30.760;2023-05-07T06:00:32;78984.38;;;-146.33
37414;BMP280;23279;46.472;30.760;2023-05-07T06:02:58;78984.38;;;-146.33
37414;BMP280;23279;46.472;30.760;2023-05-07T06:05:23;78996.59;;;-146.33
37414;BMP280;23279;46.472;30.760;2023-05-07T06:07:48;79000.66;;;-146.33
37414;BMP280;23279;46.472;30.760;2023-05-07T06:10:14;78964.03;;;-146.33
37414;BMP280;23279;46.472;30.760;2023-05-07T06:12:39;78953.84;;;-146.33
37414;BMP280;23279;46.472;30.760;2023-05-07T06:15:05;78976.25;;;-146.33
37414;BMP280;23279;46.472;30.760;2023-05-07T06:17:31;78980.31;;;-146.33
37414;BMP280;23279;46.472;30.760;2023-05-07T06:19:56;78996.59;;;-146.33
37414;BMP280;23279;46.472;30.760;2023-05-07T06:22:22;78980.31;;;-146.33
37414;BMP280;23279;46.472;30.760;2023-05-07T06:24:47;78984.38;;;-146.33
37414;BMP280;23279;46.472;30.760;2023-05-07T06:27:13;78947.75;;;-146.33
37414;BMP280;23279;46.472;30.760;2023-05-07T06:29:38;78929.41;;;-146.33
37414;BMP280;23279;46.472;30.760;2023-05-07T06:32:11;78931.44;;;-146.33
37414;BMP280;23279;46.472;30.760;2023-05-07T06:34:37;78927.38;;;-146.33
37414;BMP280;23279;46.472;30.760;2023-05-07T06:37:03;78951.81;;;-146.33
37414;BMP280;23279;46.472;30.760;2023-05-07T06:39:28;78964.03;;;-146.33
37414;BMP280;23279;46.472;30.760;2023-05-07T06:41:54;78970.13;;;-146.33
37414;BMP280;23279;46.472;30.760;2023-05-07T06:44:19;78951.81;;;-146.33
37414;BMP280;23279;46.472;30.760;2023-05-07T06:46:44;78957.91;;;-146.33
37414;BMP280;23279;46.472;30.760;2023-05-07T06:49:11;78935.53;;;-146.33
37414;BMP280;23279;46.472;30.760;2023-05-07T06:51:37;78931.44;;;-146.33
37414;BMP280;23279;46.472;30.760;2023-05-07T06:54:02;78911.09;;;-146.33
37414;BMP280;23279;46.472;30.760;2023-05-07T06:56:29;78933.50;;;-146.33
37414;BMP280;23279;46.472;30.760;2023-05-07T06:58:55;78923.31;;;-146.33
37414;BMP280;23279;46.472;30.760;2023-05-07T07:01:20;78905.00;;;-146.33
37414;BMP280;23279;46.472;30.760;2023-05-07T07:03:46;78882.59;;;-146.33
37414;BMP280;23279;46.472;30.760;2023-05-07T07:06:12;78858.19;;;-146.33
37414;BMP280;23279;46.472;30.760;2023-05-07T07:08:37;78835.78;;;-146.33
37414;BMP280;23279;46.472;30.760;2023-05-07T07:11:04;78809.31;;;-146.33
37414;BMP280;23279;46.472;30.760;2023-05-07T07:13:29;78821.53;;;-146.33
37414;BMP280;23279;46.472;30.760;2023-05-07T07:15:55;78850.03;;;-146.33
37414;BMP280;23279;46.472;30.760;2023-05-07T07:18:20;78854.09;;;-146.33
37414;BMP280;23279;46.472;30.760;2023-05-07T07:20:46;78811.34;;;-146.33
37414;BMP280;23279;46.472;30.760;2023-05-07T07:23:11;78784.91;;;-146.33
37414;BMP280;23279;46.472;30.760;2023-05-07T07:25:37;78770.66;;;-146.33
37414;BMP280;23279;46.472;30.760;2023-05-07T07:28:02;78760.47;;;-146.33
37414;BMP280;23279;46.472;30.760;2023-05-07T07:30:28;78780.81;;;-146.33
37414;BMP280;23279;46.472;30.760;2023-05-07T07:32:54;78780.81;;;-146.33
37414;BMP280;23279;46.472;30.760;2023-05-07T07:35:20;78762.50;;;-146.33
37414;BMP280;23279;46.472;30.760;2023-05-07T07:37:48;78750.28;;;-146.33
37414;BMP280;23279;46.472;30.760;2023-05-07T07:40:15;78760.47;;;-146.33
37414;BMP280;23279;46.472;30.760;2023-05-07T07:42:40;78744.19;;;-146.33
37414;BMP280;23279;46.472;30.760;2023-05-07T07:45:06;78715.69;;;-146.33
37414;BMP280;23279;46.472;30.760;2023-05-07T07:47:31;78705.50;;;-146.33
37414;BMP280;23279;46.472;30.760;2023-05-07T07:49:57;78699.41;;;-146.33
37414;BMP280;23279;46.472;30.760;2023-05-07T07:52:22;78705.50;;;-146.33
37414;BMP280;23279;46.472;30.760;2023-05-07T07:54:48;78691.25;;;-146.33
37414;BMP280;23279;46.472;30.760;2023-05-07T07:57:13;78683.13;;;-146.33
37414;BMP280;23279;46.472;30.760;2023-05-07T07:59:38;78683.13;;;-146.33
37414;BMP280;23279;46.472;30.760;2023-05-07T08:02:05;78677.03;;;-146.33
37414;BMP280;23279;46.472;30.760;2023-05-07T08:04:30;78654.63;;;-146.33
37414;BMP280;23279;46.472;30.760;2023-05-07T08:06:58;78654.63;;;-146.33
37414;BMP280;23279;46.472;30.760;2023-05-07T08:09:23;78638.34;;;-146.33
37414;BMP280;23279;46.472;30.760;2023-05-07T08:11:49;78595.59;;;-146.33
37414;BMP280;23279;46.472;30.760;2023-05-07T08:14:14;78581.34;;;-146.33
37414;BMP280;23279;46.472;30.760;2023-05-07T08:16:41;78567.13;;;-146.33
37414;BMP280;23279;46.472;30.760;2023-05-07T08:19:06;78542.69;;;-146.33
37414;BMP280;23279;46.472;30.760;2023-05-07T08:21:32;78542.69;;;-146.33
37414;BMP280;23279;46.472;30.760;2023-05-07T08:23:57;78536.59;;;-146.33
37414;BMP280;23279;46.472;30.760;2023-05-07T08:26:22;78532.50;;;-146.33
37414;BMP280;23279;46.472;30.760;2023-05-07T08:28:48;78493.84;;;-146.33
37414;BMP280;23279;46.472;30.760;2023-05-07T08:31:13;78475.53;;;-146.33
37414;BMP280;23279;46.472;30.760;2023-05-07T08:33:38;78461.28;;;-146.33
37414;BMP280;23279;46.472;30.760;2023-05-07T08:36:04;78430.75;;;-146.33
37414;BMP280;23279;46.472;30.760;2023-05-07T08:38:30;78436.84;;;-146.33
37414;BMP280;23279;46.472;30.760;2023-05-07T08:40:56;78436.84;;;-146.33
37414;BMP280;23279;46.472;30.760;2023-05-07T08:43:23;78434.81;;;-146.33
37414;BMP280;23279;46.472;30.760;2023-05-07T08:45:53;78426.69;;;-146.33
37414;BMP280;23279;46.472;30.760;2023-05-07T08:48:22;78414.47;;;-146.33
37414;BMP280;23279;46.472;30.760;2023-05-07T08:50:48;78410.41;;;-146.33
37414;BMP280;23279;46.472;30.760;2023-05-07T08:53:15;78414.47;;;-146.33
37414;BMP280;23279;46.472;30.760;2023-05-07T08:55:41;78381.91;;;-146.33
37414;BMP280;23279;46.472;30.760;2023-05-07T08:58:06;78369.69;;;-146.33
37414;BMP280;23279;46.472;30.760;2023-05-07T09:00:32;78392.09;;;-146.33
37414;BMP280;23279;46.472;30.760;2023-05-07T09:02:58;78459.25;;;-146.33
37414;BMP280;23279;46.472;30.760;2023-05-07T09:05:23;78434.81;;;-146.33
37414;BMP280;23279;46.472;30.760;2023-05-07T09:07:48;78426.69;;;-146.33
37414;BMP280;23279;46.472;30.760;2023-05-07T09:10:15;78410.41;;;-146.33
37414;BMP280;23279;46.472;30.760;2023-05-07T09:12:41;78426.69;;;-146.33
37414;BMP280;23279;46.472;30.760;2023-05-07T09:15:07;78451.09;;;-146.33
37414;BMP280;23279;46.472;30.760;2023-05-07T09:17:32;78424.66;;;-146.33
37414;BMP280;23279;46.472;30.760;2023-05-07T09:20:05;78449.06;;;-146.33
37414;BMP280;23279;46.472;30.760;2023-05-07T09:22:35;78424.66;;;-146.33
37414;BMP280;23279;46.472;30.760;2023-05-07T09:25:01;78396.16;;;-146.33
37414;BMP280;23279;46.472;30.760;2023-05-07T09:27:26;78406.31;;;-146.33
37414;BMP280;23279;46.472;30.760;2023-05-07T09:29:52;78375.81;;;-146.33
37414;BMP280;23279;46.472;30.760;2023-05-07T09:32:17;78361.56;;;-146.33
37414;BMP280;23279;46.472;30.760;2023-05-07T09:34:43;78390.03;;;-146.33
37414;BMP280;23279;46.472;30.760;2023-05-07T09:37:08;78381.91;;;-146.33
37414;BMP280;23279;46.472;30.760;2023-05-07T09:39:40;78353.41;;;-146.33
37414;BMP280;23279;46.472;30.760;2023-05-07T09:42:06;78371.72;;;-146.33
37414;BMP280;23279;46.472;30.760;2023-05-07T09:44:32;78416.50;;;-146.33
37414;BMP280;23279;46.472;30.760;2023-05-07T09:46:59;78371.72;;;-146.33
37414;BMP280;23279;46.472;30.760;2023-05-07T09:49:29;78477.56;;;-146.33
37414;BMP280;23279;46.472;30.760;2023-05-07T09:52:00;78373.75;;;-146.33
37414;BMP280;23279;46.472;30.760;2023-05-07T09:54:26;78345.28;;;-146.33
37414;BMP280;23279;46.472;30.760;2023-05-07T09:56:52;78379.88;;;-146.33
37414;BMP280;23279;46.472;30.760;2023-05-07T09:59:21;78375.81;;;-146.33
37414;BMP280;23279;46.472;30.760;2023-05-07T10:01:46;78365.63;;;-146.33
37414;BMP280;23279;46.472;30.760;2023-05-07T10:04:12;78294.41;;;-146.33
37414;BMP280;23279;46.472;30.760;2023-05-07T10:06:40;78296.44;;;-146.33
37414;BMP280;23279;46.472;30.760;2023-05-07T10:09:06;78341.19;;;-146.33
37414;BMP280;23279;46.472;30.760;2023-05-07T10:11:35;78272.00;;;-146.33
37414;BMP280;23279;46.472;30.760;2023-05-07T10:14:04;78310.69;;;-146.33
37414;BMP280;23279;46.472;30.760;2023-05-07T10:16:35;78284.22;;;-146.33
37414;BMP280;23279;46.472;30.760;2023-05-07T10:19:06;78263.88;;;-146.33
37414;BMP280;23279;46.472;30.760;2023-05-07T10:21:36;78239.44;;;-146.33
37414;BMP280;23279;46.472;30.760;2023-05-07T10:24:09;78265.91;;;-146.33
37414;BMP280;23279;46.472;30.760;2023-05-07T10:26:44;78300.50;;;-146.33
37414;BMP280;23279;46.472;30.760;2023-05-07T10:35:01;78257.75;;;-146.33
37414;BMP280;23279;46.472;30.760;2023-05-07T10:37:28;78329.00;;;-146.33
37414;BMP280;23279;46.472;30.760;2023-05-07T10:39:54;78300.50;;;-146.33
37414;BMP280;23279;46.472;30.760;2023-05-07T10:42:19;78276.06;;;-146.33
37414;BMP280;23279;46.472;30.760;2023-05-07T10:44:45;78320.84;;;-146.33
37414;BMP280;23279;46.472;30.760;2023-05-07T10:47:12;78304.56;;;-146.33
37414;BMP280;23279;46.472;30.760;2023-05-07T10:54:41;78257.75;;;-146.33
37414;BMP280;23279;46.472;30.760;2023-05-07T10:57:43;78239.44;;;-146.33
37414;BMP280;23279;46.472;30.760;2023-05-07T11:03:04;78239.44;;;-146.33
37414;BMP280;23279;46.472;30.760;2023-05-07T11:05:31;78219.09;;;-146.33
37414;BMP280;23279;46.472;30.760;2023-05-07T11:07:59;78210.97;;;-146.33
37414;BMP280;23279;46.472;30.760;2023-05-07T11:13:16;78208.91;;;-146.33
37414;BMP280;23279;46.472;30.760;2023-05-07T11:15:46;78198.75;;;-146.33
37414;BMP280;23279;46.472;30.760;2023-05-07T11:18:14;78162.13;;;-146.33
37414;BMP280;23279;46.472;30.760;2023-05-07T11:26:07;78190.59;;;-146.33
37414;BMP280;23279;46.472;30.760;2023-05-07T11:28:42;78235.38;;;-146.33
37414;BMP280;23279;46.472;30.760;2023-05-07T11:31:09;78243.53;;;-146.33
37414;BMP280;23279;46.472;30.760;2023-05-07T11:33:37;78217.06;;;-146.33
37414;BMP280;23279;46.472;30.760;2023-05-07T11:36:03;78196.72;;;-146.33
37414;BMP280;23279;46.472;30.760;2023-05-07T11:38:36;78198.75;;;-146.33
37414;BMP280;23279;46.472;30.760;2023-05-07T11:41:02;78164.16;;;-146.33
37414;BMP280;23279;46.472;30.760;2023-05-07T11:43:29;78137.69;;;-146.33
37414;BMP280;23279;46.472;30.760;2023-05-07T11:46:13;78200.78;;;-146.33
37414;BMP280;23279;46.472;30.760;2023-05-07T11:48:39;78221.13;;;-146.33
37414;BMP280;23279;46.472;30.760;2023-05-07T11:51:06;78166.19;;;-146.33
37414;BMP280;23279;46.472;30.760;2023-05-07T11:53:39;78149.91;;;-146.33
37414;BMP280;23279;46.472;30.760;2023-05-07T11:56:14;78137.69;;;-146.33
37414;BMP280;23279;46.472;30.760;2023-05-07T11:58:41;78099.03;;;-146.33
37414;BMP280;23279;46.472;30.760;2023-05-07T12:01:10;78082.75;;;-146.33
37414;BMP280;23279;46.472;30.760;2023-05-07T12:03:37;78101.06;;;-146.33
37414;BMP280;23279;46.472;30.760;2023-05-07T12:06:05;78078.69;;;-146.33
37414;BMP280;23279;46.472;30.760;2023-05-07T12:08:31;78056.28;;;-146.33
37414;BMP280;23279;46.472;30.760;2023-05-07T12:10:56;78056.28;;;-146.33
37414;BMP280;23279;46.472;30.760;2023-05-07T12:13:23;78131.59;;;-146.33
37414;BMP280;23279;46.472;30.760;2023-05-07T12:15:55;78113.28;;;-146.33
37414;BMP280;23279;46.472;30.760;2023-05-07T12:18:21;78170.25;;;-146.33
37414;BMP280;23279;46.472;30.760;2023-05-07T12:20:47;78172.28;;;-146.33
37414;BMP280;23279;46.472;30.760;2023-05-07T12:23:14;78101.06;;;-146.33
37414;BMP280;23279;46.472;30.760;2023-05-07T12:25:40;78125.47;;;-146.33
37414;BMP280;23279;46.472;30.760;2023-05-07T12:28:16;78127.53;;;-146.33
37414;BMP280;23279;46.472;30.760;2023-05-07T12:30:46;78123.44;;;-146.33
37414;BMP280;23279;46.472;30.760;2023-05-07T12:33:16;78117.34;;;-146.33
37414;BMP280;23279;46.472;30.760;2023-05-07T12:35:42;78145.84;;;-146.33
37414;BMP280;23279;46.472;30.760;2023-05-07T12:38:15;78166.19;;;-146.33
37414;BMP280;23279;46.472;30.760;2023-05-07T12:43:24;78119.38;;;-146.33
37414;BMP280;23279;46.472;30.760;2023-05-07T12:45:50;78094.97;;;-146.33
37414;BMP280;23279;46.472;30.760;2023-05-07T12:48:16;78092.94;;;-146.33
37414;BMP280;23279;46.472;30.760;2023-05-07T12:50:42;78101.06;;;-146.33
37414;BMP280;23279;46.472;30.760;2023-05-07T12:53:10;78082.75;;;-146.33
37414;BMP280;23279;46.472;30.760;2023-05-07T12:55:47;78074.63;;;-146.33
37414;BMP280;23279;46.472;30.760;2023-05-07T12:58:40;78123.44;;;-146.33
37414;BMP280;23279;46.472;30.760;2023-05-07T13:01:07;78094.97;;;-146.33
37414;BMP280;23279;46.472;30.760;2023-05-07T13:03:36;78070.53;;;-146.33
37414;BMP280;23279;46.472;30.760;2023-05-07T13:06:04;78088.84;;;-146.33
37414;BMP280;23279;46.472;30.760;2023-05-07T13:08:37;78094.97;;;-146.33
37414;BMP280;23279;46.472;30.760;2023-05-07T13:11:07;78064.44;;;-146.33
37414;BMP280;23279;46.472;30.760;2023-05-07T13:13:34;78035.94;;;-146.33
37414;BMP280;23279;46.472;30.760;2023-05-07T13:16:01;78068.50;;;-146.33
37414;BMP280;23279;46.472;30.760;2023-05-07T13:18:30;78068.50;;;-146.33
37414;BMP280;23279;46.472;30.760;2023-05-07T13:20:56;78131.59;;;-146.33
37414;BMP280;23279;46.472;30.760;2023-05-07T13:23:22;78074.63;;;-146.33
37414;BMP280;23279;46.472;30.760;2023-05-07T13:25:49;78121.41;;;-146.33
37414;BMP280;23279;46.472;30.760;2023-05-07T13:28:14;78101.06;;;-146.33
37414;BMP280;23279;46.472;30.760;2023-05-07T13:30:40;78088.84;;;-146.33
37414;BMP280;23279;46.472;30.760;2023-05-07T13:33:06;78092.94;;;-146.33
37414;BMP280;23279;46.472;30.760;2023-05-07T13:35:32;78135.66;;;-146.33
37414;BMP280;23279;46.472;30.760;2023-05-07T13:37:57;78190.59;;;-146.33
37414;BMP280;23279;46.472;30.760;2023-05-07T13:40:23;78174.31;;;-146.33
37414;BMP280;23279;46.472;30.760;2023-05-07T13:42:49;78151.94;;;-146.33
37414;BMP280;23279;46.472;30.760;2023-05-07T13:45:14;78147.88;;;-146.33
37414;BMP280;23279;46.472;30.760;2023-05-07T13:47:41;78174.31;;;-146.33
37414;BMP280;23279;46.472;30.760;2023-05-07T13:50:08;78162.13;;;-146.33
37414;BMP280;23279;46.472;30.760;2023-05-07T13:52:34;78135.66;;;-146.33